Suederoog — ZDHC8 — position and weather

sailwx.info

Track history (hours):
 
Tides and Currents Weather Stations Pressure Air Temp Water Temp Dewpoint Dewpoint Depression Visibility Wind Speed Wind Dir Waves Ship Positions

Suederoog

Last reported at 2016-Jul-25 15:34 UTC. Time now 2016-Jul-25 15:59 UTC.
Position N 53°39' E 009°31'.

Length 161 m; draft 9.5 m.

Type: Cargo ship. MMSI: 236300000.

Date/timePositionNaut miles runAvg speedWind from/ knotsBaromVisibWave heightAir tempDewpointWater temp
2016-Jul-25 15:34N 53°39' E 009°31'1110.7
2016-Jul-25 14:34N 53°34' E 009°47'5 5.1
2016-Jul-25 13:33N 53°32' E 009°55'0 0.0
2016-Jul-25 12:33N 53°32' E 009°55'0 0.0
2016-Jul-25 11:33N 53°32' E 009°55'0 0.0
2016-Jul-25 10:30N 53°32' E 009°55'0 0.0
2016-Jul-25 09:33N 53°32' E 009°55'0 0.0
2016-Jul-25 08:33N 53°32' E 009°55'0 0.0
2016-Jul-25 07:33N 53°32' E 009°55'0 0.0
2016-Jul-25 06:33N 53°32' E 009°55'0 0.0
2016-Jul-25 05:30N 53°32' E 009°55'1 0.8
2016-Jul-25 04:34N 53°32' E 009°54'2 1.7
2016-Jul-25 03:31N 53°32' E 009°57'0 0.0
2016-Jul-25 02:31N 53°32' E 009°57'0 0.0
2016-Jul-25 01:31N 53°32' E 009°57'0 0.0
2016-Jul-25 00:31N 53°32' E 009°57'0 0.0
2016-Jul-24 23:31N 53°32' E 009°57'0 0.0
2016-Jul-24 22:31N 53°32' E 009°57'0 0.0
2016-Jul-24 21:31N 53°32' E 009°57'0 0.0
2016-Jul-24 20:31N 53°32' E 009°57'0 0.0
2016-Jul-24 19:31N 53°32' E 009°57'0 0.0
2016-Jul-24 18:28N 53°32' E 009°57'0 0.0
2016-Jul-24 17:31N 53°32' E 009°57'0 0.0
2016-Jul-24 16:31N 53°32' E 009°57'0 0.0
2016-Jul-24 15:31N 53°32' E 009°57'0 0.0
2016-Jul-24 14:31N 53°32' E 009°57'0 0.0
2016-Jul-24 13:31N 53°32' E 009°57'0 0.0
2016-Jul-24 12:32N 53°32' E 009°57'6 6.0
2016-Jul-24 11:33N 53°33' E 009°48'1010.4
2016-Jul-24 10:34N 53°38' E 009°32'1211.5
2016-Jul-24 09:33N 53°48' E 009°23'10 9.9
2016-Jul-24 08:34N 53°54' E 009°09'2 1.6
2016-Jul-24 07:33N 53°55' E 009°11'6 6.4
2016-Jul-24 06:33N 53°60' E 009°17'11 5.3
2016-Jul-24 04:32N 54°10' E 009°24'6 5.9
2016-Jul-24 03:33N 54°12' E 009°33'2 1.7
2016-Jul-24 02:29N 54°13' E 009°35'6 6.1
2016-Jul-24 01:27N 54°18' E 009°42'7 6.5
2016-Jul-24 00:26N 54°22' E 009°51'6 3.0
2016-Jul-23 22:33N 54°22' E 010°01'3 3.4
2016-Jul-23 21:33N 54°22' E 010°07'2 2.3
2016-Jul-23 20:33N 54°22' E 010°10'10 9.9
2016-Jul-23 19:33N 54°30' E 010°20'1212.3
2016-Jul-23 18:33N 54°34' E 010°40'1212.1
2016-Jul-23 17:33N 54°36' E 011°01'1212.2
2016-Jul-23 16:33N 54°33' E 011°21'1312.6
2016-Jul-23 15:33N 54°28' E 011°41'1212.3
2016-Jul-23 14:33N 54°26' E 012°02'1110.6
2016-Jul-23 13:33N 54°34' E 012°15'1212.0
2016-Jul-23 12:33N 54°42' E 012°31'1212.0
2016-Jul-23 11:33N 54°48' E 012°48'1212.2
2016-Jul-23 10:33N 54°52' E 013°08'1211.8
2016-Jul-23 09:33N 54°57' E 013°27'1212.0
2016-Jul-23 08:33N 55°01' E 013°47'1211.7
2016-Jul-23 07:33N 55°05' E 014°06'1212.0
2016-Jul-23 06:33N 55°15' E 014°19'2411.9
2016-Jul-23 04:33N 55°31' E 014°49'1212.0
2016-Jul-23 03:33N 55°37' E 015°08'1212.0
2016-Jul-23 02:33N 55°43' E 015°26'1211.9
2016-Jul-23 01:33N 55°49' E 015°44'1212.0
2016-Jul-23 00:33N 55°55' E 016°03'1212.0
2016-Jul-22 23:33N 56°01' E 016°21'32514.1
2016-Jul-22 00:30N 59°42' E 023°50'2312.0
2016-Jul-21 22:33N 59°48' E 024°34'1212.0
2016-Jul-21 21:32N 59°51' E 024°58'4611.5
2016-Jul-21 17:33N 60°10' E 026°21'1313.1
2016-Jul-21 16:34N 60°20' E 026°37'1010.2
2016-Jul-21 15:34N 60°25' E 026°55'0 0.0
2016-Jul-21 14:33N 60°25' E 026°55'0 0.0
2016-Jul-21 13:33N 60°25' E 026°55'0 0.0
2016-Jul-21 12:33N 60°25' E 026°55'0 0.0
2016-Jul-21 11:33N 60°25' E 026°55'0 0.0
2016-Jul-21 10:33N 60°25' E 026°55'0 0.0
2016-Jul-21 09:33N 60°25' E 026°55'0 0.0
2016-Jul-21 08:33N 60°25' E 026°55'0 0.0
2016-Jul-21 07:33N 60°25' E 026°55'0 0.0
2016-Jul-21 06:33N 60°25' E 026°55'0 0.0
2016-Jul-21 05:33N 60°25' E 026°55'0 0.0
2016-Jul-21 04:33N 60°25' E 026°55'0 0.0
2016-Jul-21 03:33N 60°25' E 026°55'0 0.0
2016-Jul-21 02:33N 60°25' E 026°55'0 0.0
2016-Jul-21 01:33N 60°25' E 026°55'0 0.0
2016-Jul-21 00:33N 60°25' E 026°55'0 0.0
2016-Jul-20 23:33N 60°25' E 026°55'0 0.0
2016-Jul-20 22:33N 60°25' E 026°55'0 0.0
2016-Jul-20 21:33N 60°25' E 026°55'4 4.0
2016-Jul-20 20:33N 60°23' E 026°48'1514.9
2016-Jul-20 19:33N 60°14' E 026°25'11 9.6
2016-Jul-20 18:24N 60°04' E 026°37'1011.4
2016-Jul-20 17:29N 60°00' E 026°56'1011.1
2016-Jul-20 16:33N 60°03' E 027°16'1212.0
2016-Jul-20 15:33N 60°09' E 027°36'1110.9
2016-Jul-20 14:33N 60°11' E 027°58'1111.4
2016-Jul-20 13:33N 60°06' E 028°20'1111.0
2016-Jul-20 12:33N 60°03' E 028°40'1211.7
2016-Jul-20 11:33N 60°02' E 029°04'2311.4
2016-Jul-20 09:33N 59°58' E 029°48'1010.3
2016-Jul-20 08:33N 59°54' E 030°08'3 3.0
2016-Jul-20 07:33N 59°53' E 030°13'0 0.0
2016-Jul-20 06:33N 59°53' E 030°13'0 0.0
2016-Jul-20 05:33N 59°53' E 030°13'0 0.0
2016-Jul-20 04:33N 59°53' E 030°13'0 0.0
2016-Jul-20 03:33N 59°53' E 030°13'0 0.0
2016-Jul-20 02:33N 59°53' E 030°13'0 0.0
2016-Jul-20 01:33N 59°53' E 030°13'0 0.0
2016-Jul-20 00:33N 59°53' E 030°13'0 0.0
2016-Jul-19 23:33N 59°53' E 030°13'0 0.0
2016-Jul-19 22:33N 59°53' E 030°13'0 0.0
2016-Jul-19 21:33N 59°53' E 030°13'0 0.0
2016-Jul-19 20:33N 59°53' E 030°13'0 0.0
2016-Jul-19 19:33N 59°53' E 030°13'0 0.0
2016-Jul-19 18:33N 59°53' E 030°13'0 0.0
2016-Jul-19 17:33N 59°53' E 030°13'0 0.0
2016-Jul-19 16:33N 59°53' E 030°13'0 0.0
2016-Jul-19 15:33N 59°53' E 030°13'1 1.2
2016-Jul-19 14:32N 59°52' E 030°12'0 0.0
2016-Jul-19 13:32N 59°52' E 030°12'0 0.0
2016-Jul-19 12:26N 59°52' E 030°12'0 0.0
2016-Jul-19 11:26N 59°52' E 030°12'0 0.0
2016-Jul-19 10:32N 59°52' E 030°12'0 0.0
2016-Jul-19 09:29N 59°52' E 030°12'0 0.0
2016-Jul-19 08:32N 59°52' E 030°12'0 0.0
2016-Jul-19 07:32N 59°52' E 030°12'0 0.0
2016-Jul-19 04:32N 59°52' E 030°12'0 0.0
2016-Jul-19 03:32N 59°52' E 030°12'0 0.1
2016-Jul-19 02:33N 59°52' E 030°12'6 5.7
2016-Jul-19 01:33N 59°55' E 030°02'1111.6
2016-Jul-19 00:33N 59°60' E 029°41'28 3.0
2016-Jul-18 15:17N 60°02' E 028°46'811.8
2016-Jul-18 14:33N 60°03' E 028°29'1211.5
2016-Jul-18 13:33N 60°08' E 028°09'1211.8
2016-Jul-18 12:33N 60°11' E 027°46'1313.1
2016-Jul-18 11:33N 60°04' E 027°23'1313.4
2016-Jul-18 10:33N 59°58' E 026°59'1211.8
2016-Jul-18 09:33N 59°59' E 026°35'2511.8
2016-Jul-18 07:28N 59°53' E 025°48'1311.8
2016-Jul-18 06:20N 59°50' E 025°22'2212.0
2016-Jul-18 04:29N 59°45' E 024°39'1311.8
2016-Jul-18 03:23N 59°42' E 024°14'1011.9
2016-Jul-18 02:33N 59°38' E 023°55'1211.7
2016-Jul-18 01:33N 59°35' E 023°33'1211.9
2016-Jul-18 00:33N 59°31' E 023°11'1511.8
2016-Jul-17 23:19N 59°26' E 022°44'33611.5
2016-Jul-16 18:12N 55°34' E 015°13'811.9
2016-Jul-16 17:33N 55°31' E 015°01'1211.9
2016-Jul-16 16:33N 55°25' E 014°43'1211.9
2016-Jul-16 15:33N 55°16' E 014°28'1211.6
2016-Jul-16 14:33N 55°07' E 014°16'1111.5
2016-Jul-16 13:33N 54°60' E 014°00'1212.1
2016-Jul-16 12:33N 54°56' E 013°40'1212.0
2016-Jul-16 11:33N 54°52' E 013°20'1511.7
2016-Jul-16 10:15N 54°48' E 012°55'2112.1
2016-Jul-16 08:31N 54°38' E 012°23'1111.3
2016-Jul-16 07:32N 54°29' E 012°13'1111.0
2016-Jul-16 06:33N 54°25' E 011°56'2512.4
2016-Jul-16 04:33N 54°33' E 011°16'1212.0
2016-Jul-16 03:33N 54°35' E 010°56'1212.0
2016-Jul-16 02:33N 54°33' E 010°35'1211.7
2016-Jul-16 01:33N 54°29' E 010°17'8 8.3
2016-Jul-16 00:33N 54°22' E 010°08'5 4.8
2016-Jul-15 23:33N 54°21' E 010°00'6 6.4
2016-Jul-15 22:33N 54°22' E 009°49'7 6.7
2016-Jul-15 21:31N 54°17' E 009°40'6 6.4
2016-Jul-15 20:33N 54°12' E 009°34'9 6.9
2016-Jul-15 19:14N 54°08' E 009°20'5 6.8
2016-Jul-15 18:33N 54°04' E 009°19'7 6.6
2016-Jul-15 17:33N 53°58' E 009°15'5 5.3
2016-Jul-15 16:33N 53°54' E 009°09'  
Track history (hours):
 
Tides and Currents Weather Stations Pressure Air Temp Water Temp Dewpoint Dewpoint Depression Visibility Wind Speed Wind Dir Waves Ship Positions

Suederoog

Last reported at 2016-Jul-25 15:34 UTC. Time now 2016-Jul-25 15:59 UTC.
Position N 53°39' E 009°31'.

Length 161 m; draft 9.5 m.

Type: Cargo ship. MMSI: 236300000.

Date/timePositionNaut miles runAvg speedWind from/ knotsBaromVisibWave heightAir tempDewpointWater temp
2016-Jul-25 15:34N 53°39' E 009°31'1110.7
2016-Jul-25 14:34N 53°34' E 009°47'5 5.1
2016-Jul-25 13:33N 53°32' E 009°55'0 0.0
2016-Jul-25 12:33N 53°32' E 009°55'0 0.0
2016-Jul-25 11:33N 53°32' E 009°55'0 0.0
2016-Jul-25 10:30N 53°32' E 009°55'0 0.0
2016-Jul-25 09:33N 53°32' E 009°55'0 0.0
2016-Jul-25 08:33N 53°32' E 009°55'0 0.0
2016-Jul-25 07:33N 53°32' E 009°55'0 0.0
2016-Jul-25 06:33N 53°32' E 009°55'0 0.0
2016-Jul-25 05:30N 53°32' E 009°55'1 0.8
2016-Jul-25 04:34N 53°32' E 009°54'2 1.7
2016-Jul-25 03:31N 53°32' E 009°57'0 0.0
2016-Jul-25 02:31N 53°32' E 009°57'0 0.0
2016-Jul-25 01:31N 53°32' E 009°57'0 0.0
2016-Jul-25 00:31N 53°32' E 009°57'0 0.0
2016-Jul-24 23:31N 53°32' E 009°57'0 0.0
2016-Jul-24 22:31N 53°32' E 009°57'0 0.0
2016-Jul-24 21:31N 53°32' E 009°57'0 0.0
2016-Jul-24 20:31N 53°32' E 009°57'0 0.0
2016-Jul-24 19:31N 53°32' E 009°57'0 0.0
2016-Jul-24 18:28N 53°32' E 009°57'0 0.0
2016-Jul-24 17:31N 53°32' E 009°57'0 0.0
2016-Jul-24 16:31N 53°32' E 009°57'0 0.0
2016-Jul-24 15:31N 53°32' E 009°57'0 0.0
2016-Jul-24 14:31N 53°32' E 009°57'0 0.0
2016-Jul-24 13:31N 53°32' E 009°57'0 0.0
2016-Jul-24 12:32N 53°32' E 009°57'6 6.0
2016-Jul-24 11:33N 53°33' E 009°48'1010.4
2016-Jul-24 10:34N 53°38' E 009°32'1211.5
2016-Jul-24 09:33N 53°48' E 009°23'10 9.9
2016-Jul-24 08:34N 53°54' E 009°09'2 1.6
2016-Jul-24 07:33N 53°55' E 009°11'6 6.4
2016-Jul-24 06:33N 53°60' E 009°17'11 5.3
2016-Jul-24 04:32N 54°10' E 009°24'6 5.9
2016-Jul-24 03:33N 54°12' E 009°33'2 1.7
2016-Jul-24 02:29N 54°13' E 009°35'6 6.1
2016-Jul-24 01:27N 54°18' E 009°42'7 6.5
2016-Jul-24 00:26N 54°22' E 009°51'6 3.0
2016-Jul-23 22:33N 54°22' E 010°01'3 3.4
2016-Jul-23 21:33N 54°22' E 010°07'2 2.3
2016-Jul-23 20:33N 54°22' E 010°10'10 9.9
2016-Jul-23 19:33N 54°30' E 010°20'1212.3
2016-Jul-23 18:33N 54°34' E 010°40'1212.1
2016-Jul-23 17:33N 54°36' E 011°01'1212.2
2016-Jul-23 16:33N 54°33' E 011°21'1312.6
2016-Jul-23 15:33N 54°28' E 011°41'1212.3
2016-Jul-23 14:33N 54°26' E 012°02'1110.6
2016-Jul-23 13:33N 54°34' E 012°15'1212.0
2016-Jul-23 12:33N 54°42' E 012°31'1212.0
2016-Jul-23 11:33N 54°48' E 012°48'1212.2
2016-Jul-23 10:33N 54°52' E 013°08'1211.8
2016-Jul-23 09:33N 54°57' E 013°27'1212.0
2016-Jul-23 08:33N 55°01' E 013°47'1211.7
2016-Jul-23 07:33N 55°05' E 014°06'1212.0
2016-Jul-23 06:33N 55°15' E 014°19'2411.9
2016-Jul-23 04:33N 55°31' E 014°49'1212.0
2016-Jul-23 03:33N 55°37' E 015°08'1212.0
2016-Jul-23 02:33N 55°43' E 015°26'1211.9
2016-Jul-23 01:33N 55°49' E 015°44'1212.0
2016-Jul-23 00:33N 55°55' E 016°03'1212.0
2016-Jul-22 23:33N 56°01' E 016°21'32514.1
2016-Jul-22 00:30N 59°42' E 023°50'2312.0
2016-Jul-21 22:33N 59°48' E 024°34'1212.0
2016-Jul-21 21:32N 59°51' E 024°58'4611.5
2016-Jul-21 17:33N 60°10' E 026°21'1313.1
2016-Jul-21 16:34N 60°20' E 026°37'1010.2
2016-Jul-21 15:34N 60°25' E 026°55'0 0.0
2016-Jul-21 14:33N 60°25' E 026°55'0 0.0
2016-Jul-21 13:33N 60°25' E 026°55'0 0.0
2016-Jul-21 12:33N 60°25' E 026°55'0 0.0
2016-Jul-21 11:33N 60°25' E 026°55'0 0.0
2016-Jul-21 10:33N 60°25' E 026°55'0 0.0
2016-Jul-21 09:33N 60°25' E 026°55'0 0.0
2016-Jul-21 08:33N 60°25' E 026°55'0 0.0
2016-Jul-21 07:33N 60°25' E 026°55'0 0.0
2016-Jul-21 06:33N 60°25' E 026°55'0 0.0
2016-Jul-21 05:33N 60°25' E 026°55'0 0.0
2016-Jul-21 04:33N 60°25' E 026°55'0 0.0
2016-Jul-21 03:33N 60°25' E 026°55'0 0.0
2016-Jul-21 02:33N 60°25' E 026°55'0 0.0
2016-Jul-21 01:33N 60°25' E 026°55'0 0.0
2016-Jul-21 00:33N 60°25' E 026°55'0 0.0
2016-Jul-20 23:33N 60°25' E 026°55'0 0.0
2016-Jul-20 22:33N 60°25' E 026°55'0 0.0
2016-Jul-20 21:33N 60°25' E 026°55'4 4.0
2016-Jul-20 20:33N 60°23' E 026°48'1514.9
2016-Jul-20 19:33N 60°14' E 026°25'11 9.6
2016-Jul-20 18:24N 60°04' E 026°37'1011.4
2016-Jul-20 17:29N 60°00' E 026°56'1011.1
2016-Jul-20 16:33N 60°03' E 027°16'1212.0
2016-Jul-20 15:33N 60°09' E 027°36'1110.9
2016-Jul-20 14:33N 60°11' E 027°58'1111.4
2016-Jul-20 13:33N 60°06' E 028°20'1111.0
2016-Jul-20 12:33N 60°03' E 028°40'1211.7
2016-Jul-20 11:33N 60°02' E 029°04'2311.4
2016-Jul-20 09:33N 59°58' E 029°48'1010.3
2016-Jul-20 08:33N 59°54' E 030°08'3 3.0
2016-Jul-20 07:33N 59°53' E 030°13'0 0.0
2016-Jul-20 06:33N 59°53' E 030°13'0 0.0
2016-Jul-20 05:33N 59°53' E 030°13'0 0.0
2016-Jul-20 04:33N 59°53' E 030°13'0 0.0
2016-Jul-20 03:33N 59°53' E 030°13'0 0.0
2016-Jul-20 02:33N 59°53' E 030°13'0 0.0
2016-Jul-20 01:33N 59°53' E 030°13'0 0.0
2016-Jul-20 00:33N 59°53' E 030°13'0 0.0
2016-Jul-19 23:33N 59°53' E 030°13'0 0.0
2016-Jul-19 22:33N 59°53' E 030°13'0 0.0
2016-Jul-19 21:33N 59°53' E 030°13'0 0.0
2016-Jul-19 20:33N 59°53' E 030°13'0 0.0
2016-Jul-19 19:33N 59°53' E 030°13'0 0.0
2016-Jul-19 18:33N 59°53' E 030°13'0 0.0
2016-Jul-19 17:33N 59°53' E 030°13'0 0.0
2016-Jul-19 16:33N 59°53' E 030°13'0 0.0
2016-Jul-19 15:33N 59°53' E 030°13'1 1.2
2016-Jul-19 14:32N 59°52' E 030°12'0 0.0
2016-Jul-19 13:32N 59°52' E 030°12'0 0.0
2016-Jul-19 12:26N 59°52' E 030°12'0 0.0
2016-Jul-19 11:26N 59°52' E 030°12'0 0.0
2016-Jul-19 10:32N 59°52' E 030°12'0 0.0
2016-Jul-19 09:29N 59°52' E 030°12'0 0.0
2016-Jul-19 08:32N 59°52' E 030°12'0 0.0
2016-Jul-19 07:32N 59°52' E 030°12'0 0.0
2016-Jul-19 04:32N 59°52' E 030°12'0 0.0
2016-Jul-19 03:32N 59°52' E 030°12'0 0.1
2016-Jul-19 02:33N 59°52' E 030°12'6 5.7
2016-Jul-19 01:33N 59°55' E 030°02'1111.6
2016-Jul-19 00:33N 59°60' E 029°41'28 3.0
2016-Jul-18 15:17N 60°02' E 028°46'811.8
2016-Jul-18 14:33N 60°03' E 028°29'1211.5
2016-Jul-18 13:33N 60°08' E 028°09'1211.8
2016-Jul-18 12:33N 60°11' E 027°46'1313.1
2016-Jul-18 11:33N 60°04' E 027°23'1313.4
2016-Jul-18 10:33N 59°58' E 026°59'1211.8
2016-Jul-18 09:33N 59°59' E 026°35'2511.8
2016-Jul-18 07:28N 59°53' E 025°48'1311.8
2016-Jul-18 06:20N 59°50' E 025°22'2212.0
2016-Jul-18 04:29N 59°45' E 024°39'1311.8
2016-Jul-18 03:23N 59°42' E 024°14'1011.9
2016-Jul-18 02:33N 59°38' E 023°55'1211.7
2016-Jul-18 01:33N 59°35' E 023°33'1211.9
2016-Jul-18 00:33N 59°31' E 023°11'1511.8
2016-Jul-17 23:19N 59°26' E 022°44'33611.5
2016-Jul-16 18:12N 55°34' E 015°13'811.9
2016-Jul-16 17:33N 55°31' E 015°01'1211.9
2016-Jul-16 16:33N 55°25' E 014°43'1211.9
2016-Jul-16 15:33N 55°16' E 014°28'1211.6
2016-Jul-16 14:33N 55°07' E 014°16'1111.5
2016-Jul-16 13:33N 54°60' E 014°00'1212.1
2016-Jul-16 12:33N 54°56' E 013°40'1212.0
2016-Jul-16 11:33N 54°52' E 013°20'1511.7
2016-Jul-16 10:15N 54°48' E 012°55'2112.1
2016-Jul-16 08:31N 54°38' E 012°23'1111.3
2016-Jul-16 07:32N 54°29' E 012°13'1111.0
2016-Jul-16 06:33N 54°25' E 011°56'2512.4
2016-Jul-16 04:33N 54°33' E 011°16'1212.0
2016-Jul-16 03:33N 54°35' E 010°56'1212.0
2016-Jul-16 02:33N 54°33' E 010°35'1211.7
2016-Jul-16 01:33N 54°29' E 010°17'8 8.3
2016-Jul-16 00:33N 54°22' E 010°08'5 4.8
2016-Jul-15 23:33N 54°21' E 010°00'6 6.4
2016-Jul-15 22:33N 54°22' E 009°49'7 6.7
2016-Jul-15 21:31N 54°17' E 009°40'6 6.4
2016-Jul-15 20:33N 54°12' E 009°34'9 6.9
2016-Jul-15 19:14N 54°08' E 009°20'5 6.8
2016-Jul-15 18:33N 54°04' E 009°19'7 6.6
2016-Jul-15 17:33N 53°58' E 009°15'5 5.3
2016-Jul-15 16:33N 53°54' E 009°09'  

Dump ship's entire track history